Time;durP1;ratioP1;P1;durP2;ratioP2;P2;SDS_P1;SDS_P2;PMS_P1;PMS_P2;Temp;Humidity;BMP_temperature;BMP_pressure;BME280_temperature;BME280_humidity;BME280_pressure;Samples;Min_cycle;Max_cycle;Signal;HPM_P1;HPM_P2
2023/12/21 00:02:11;;;;;;;9.47;3.70;;;5.50;99.90;;;;;;4964069;28;20226;-80
2023/12/21 00:04:38;;;;;;;10.80;3.27;;;5.60;99.90;;;;;;4955546;28;20316;-80
2023/12/21 00:07:04;;;;;;;11.13;3.10;;;5.70;99.90;;;;;;4961572;28;20256;-80
2023/12/21 00:09:31;;;;;;;10.80;3.13;;;5.80;99.90;;;;;;4962383;28;20722;-79
2023/12/21 00:11:58;;;;;;;12.27;2.80;;;5.90;99.90;;;;;;4961205;28;20805;-78
2023/12/21 00:14:27;;;;;;;14.53;3.17;;;6.00;99.90;;;;;;4963768;28;20240;-78
2023/12/21 00:16:53;;;;;;;9.67;3.13;;;6.10;99.90;;;;;;4962594;28;20231;-79
2023/12/21 00:19:20;;;;;;;11.73;2.50;;;6.20;99.90;;;;;;4961571;28;20253;-79
2023/12/21 00:21:47;;;;;;;10.20;2.33;;;6.30;99.90;;;;;;4964561;28;20243;-80
2023/12/21 00:24:14;;;;;;;10.57;2.90;;;6.40;99.90;;;;;;4966938;28;20218;-80
2023/12/21 00:26:41;;;;;;;13.87;2.90;;;6.50;99.90;;;;;;4956446;28;20745;-79
2023/12/21 00:29:09;;;;;;;11.90;3.33;;;6.50;99.90;;;;;;4963705;28;20685;-79
2023/12/21 00:31:38;;;;;;;10.03;3.17;;;6.60;99.90;;;;;;4964346;28;20304;-80
2023/12/21 00:34:05;;;;;;;10.33;2.60;;;6.70;99.90;;;;;;4963587;28;20228;-80
2023/12/21 00:36:31;;;;;;;12.20;2.90;;;6.80;99.90;;;;;;4961239;28;20708;-80
2023/12/21 00:38:58;;;;;;;6.10;2.30;;;6.90;99.90;;;;;;4963748;28;20235;-80
2023/12/21 00:41:25;;;;;;;8.53;2.33;;;6.90;99.90;;;;;;4964048;28;20796;-80
2023/12/21 00:43:52;;;;;;;8.50;2.40;;;6.90;99.90;;;;;;4964112;28;20229;-80
2023/12/21 00:46:19;;;;;;;5.73;1.90;;;6.90;99.90;;;;;;4961548;28;20226;-80
2023/12/21 00:48:47;;;;;;;8.33;2.53;;;6.90;99.90;;;;;;4960506;28;21076;-80
2023/12/21 00:51:13;;;;;;;10.27;2.90;;;6.90;99.90;;;;;;4955991;28;20229;-79
2023/12/21 00:53:40;;;;;;;9.00;2.33;;;6.80;99.90;;;;;;4965206;28;20729;-82
2023/12/21 00:56:08;;;;;;;16.97;2.70;;;6.80;99.90;;;;;;4963947;28;20233;-81
2023/12/21 00:58:35;;;;;;;17.13;3.17;;;6.80;99.90;;;;;;4966164;28;20284;-81
2023/12/21 01:01:02;;;;;;;15.50;3.40;;;6.90;99.90;;;;;;4963951;28;20240;-81
2023/12/21 01:03:29;;;;;;;14.70;3.20;;;6.90;99.90;;;;;;4963755;28;20302;-80
2023/12/21 01:05:57;;;;;;;19.43;3.20;;;6.90;99.90;;;;;;4963092;28;20320;-81
2023/12/21 01:08:24;;;;;;;16.70;3.47;;;6.90;99.90;;;;;;4955897;28;20233;-81
2023/12/21 01:10:50;;;;;;;18.20;3.80;;;7.00;99.90;;;;;;4961940;28;20230;-80
2023/12/21 01:13:17;;;;;;;16.40;3.33;;;7.00;99.90;;;;;;4957701;28;20312;-80
2023/12/21 01:15:44;;;;;;;16.07;3.27;;;7.00;99.90;;;;;;4961533;28;20384;-81
2023/12/21 01:18:11;;;;;;;18.00;3.37;;;7.00;99.90;;;;;;4964902;28;20249;-81
2023/12/21 01:20:37;;;;;;;15.70;3.30;;;7.10;99.90;;;;;;4959925;28;20233;-80
2023/12/21 01:23:05;;;;;;;17.97;3.53;;;7.10;99.90;;;;;;4970536;28;20314;-80
2023/12/21 01:25:32;;;;;;;13.53;2.83;;;7.10;99.90;;;;;;4992692;28;20770;-81
2023/12/21 01:27:59;;;;;;;16.13;2.97;;;7.20;99.90;;;;;;4961107;28;20331;-80
2023/12/21 01:30:27;;;;;;;10.87;2.90;;;7.20;99.90;;;;;;4964403;28;20237;-80
2023/12/21 01:32:53;;;;;;;11.17;2.67;;;7.20;99.90;;;;;;4963776;28;20256;-80
2023/12/21 01:35:20;;;;;;;11.87;2.57;;;7.20;99.90;;;;;;4962504;28;20230;-80
2023/12/21 01:37:47;;;;;;;11.90;2.30;;;7.30;99.90;;;;;;4961774;28;20235;-80
2023/12/21 01:40:16;;;;;;;12.87;2.40;;;7.30;99.90;;;;;;4964656;28;20242;-80
2023/12/21 01:42:42;;;;;;;11.80;2.43;;;7.30;99.90;;;;;;4961878;28;20868;-80
2023/12/21 01:45:10;;;;;;;12.07;2.27;;;7.30;99.90;;;;;;4964736;28;20613;-82
2023/12/21 01:47:37;;;;;;;11.30;3.03;;;7.30;99.90;;;;;;4970079;28;20312;-81
2023/12/21 01:50:04;;;;;;;11.20;1.83;;;7.30;99.90;;;;;;4965577;28;20231;-81
2023/12/21 01:52:31;;;;;;;10.27;2.37;;;7.30;99.90;;;;;;4964843;28;20240;-80
2023/12/21 01:54:58;;;;;;;5.73;1.57;;;7.30;99.90;;;;;;4964327;28;20319;-80
2023/12/21 01:57:26;;;;;;;7.20;1.70;;;7.40;99.90;;;;;;4962857;28;20320;-80
2023/12/21 01:59:53;;;;;;;9.50;2.00;;;7.40;99.90;;;;;;4962777;28;20956;-80
2023/12/21 02:02:20;;;;;;;7.80;2.00;;;7.40;99.90;;;;;;4960077;28;20230;-80
2023/12/21 02:04:48;;;;;;;6.83;1.70;;;7.40;99.90;;;;;;4965446;28;20228;-80
2023/12/21 02:07:16;;;;;;;8.93;1.87;;;7.40;99.90;;;;;;4962309;28;20661;-80
2023/12/21 02:09:43;;;;;;;8.27;2.13;;;7.40;99.90;;;;;;4959284;28;20292;-80
2023/12/21 02:12:10;;;;;;;8.63;2.20;;;7.40;99.90;;;;;;4962959;28;20940;-80
2023/12/21 02:14:38;;;;;;;6.63;2.00;;;7.40;99.90;;;;;;4963074;28;20234;-80
2023/12/21 02:17:09;;;;;;;13.20;2.53;;;7.40;99.90;;;;;;4964538;28;20237;-80
2023/12/21 02:19:38;;;;;;;8.00;2.17;;;7.50;99.90;;;;;;4962308;28;20634;-80
2023/12/21 02:22:06;;;;;;;13.07;2.60;;;7.50;99.90;;;;;;4959297;28;20249;-81
2023/12/21 02:24:35;;;;;;;7.17;1.93;;;7.50;99.90;;;;;;4966617;28;20229;-81
2023/12/21 02:27:02;;;;;;;10.50;2.63;;;7.50;99.90;;;;;;4965625;28;20320;-81
2023/12/21 02:29:29;;;;;;;10.57;2.40;;;7.50;99.90;;;;;;4997662;28;20835;-80
2023/12/21 02:31:56;;;;;;;11.70;2.67;;;7.50;99.90;;;;;;4966546;28;20232;-81
2023/12/21 02:34:23;;;;;;;12.23;2.63;;;7.50;99.90;;;;;;4962557;28;20537;-80
2023/12/21 02:36:49;;;;;;;10.47;2.33;;;7.50;99.90;;;;;;4962790;28;20231;-80
2023/12/21 02:39:16;;;;;;;10.90;2.40;;;7.50;99.90;;;;;;4963505;28;20671;-80
2023/12/21 02:41:44;;;;;;;7.27;2.23;;;7.50;99.90;;;;;;4960841;28;20233;-79
2023/12/21 02:44:11;;;;;;;12.10;2.00;;;7.50;99.90;;;;;;4954398;28;20600;-80
2023/12/21 02:46:38;;;;;;;10.63;2.07;;;7.50;99.90;;;;;;4955500;28;20257;-80
2023/12/21 02:49:05;;;;;;;8.03;2.20;;;7.60;99.90;;;;;;4957798;28;20229;-79
2023/12/21 02:51:31;;;;;;;8.73;1.90;;;7.50;99.90;;;;;;4960635;28;20222;-80
2023/12/21 02:53:58;;;;;;;7.23;1.83;;;7.50;99.90;;;;;;4962104;28;20222;-80
2023/12/21 02:56:25;;;;;;;8.13;2.20;;;7.50;99.90;;;;;;4960070;28;20228;-80
2023/12/21 02:58:53;;;;;;;10.23;2.20;;;7.50;99.90;;;;;;4960260;28;20233;-81
2023/12/21 03:01:20;;;;;;;7.73;2.40;;;7.50;99.90;;;;;;4960204;28;20779;-80
2023/12/21 03:03:46;;;;;;;9.70;2.50;;;7.50;99.90;;;;;;4963423;28;20260;-80
2023/12/21 03:06:13;;;;;;;8.27;2.40;;;7.50;99.90;;;;;;4963895;28;20237;-81
2023/12/21 03:08:40;;;;;;;8.93;2.77;;;7.50;99.90;;;;;;4962399;28;20312;-81
2023/12/21 03:11:07;;;;;;;12.33;2.80;;;7.50;99.90;;;;;;5024843;23;20306;-78
2023/12/21 03:13:34;;;;;;;12.23;2.60;;;7.50;99.90;;;;;;5011441;28;20223;-78
2023/12/21 03:16:06;;;;;;;10.77;3.00;;;7.60;99.90;;;;;;5015205;28;20215;-78
2023/12/21 03:18:32;;;;;;;14.30;3.07;;;7.50;99.90;;;;;;5019254;28;20608;-79
2023/12/21 03:20:59;;;;;;;14.37;3.20;;;7.60;99.90;;;;;;5012990;28;20738;-77
2023/12/21 03:23:26;;;;;;;15.17;3.17;;;7.60;99.90;;;;;;5014339;28;20221;-77
2023/12/21 03:25:53;;;;;;;15.73;3.27;;;7.60;99.90;;;;;;5019861;28;20603;-77
2023/12/21 03:28:20;;;;;;;13.27;3.67;;;7.60;99.90;;;;;;5018773;28;20228;-77
2023/12/21 03:30:47;;;;;;;14.43;3.00;;;7.60;99.90;;;;;;5017802;28;20392;-77
2023/12/21 03:33:15;;;;;;;11.47;3.20;;;7.60;99.90;;;;;;5018278;28;20626;-77
2023/12/21 03:35:42;;;;;;;9.43;2.77;;;7.60;99.90;;;;;;5017413;28;20563;-77
2023/12/21 03:38:09;;;;;;;14.30;3.03;;;7.60;99.90;;;;;;5010024;28;20229;-77
2023/12/21 03:40:36;;;;;;;13.70;3.60;;;7.60;99.90;;;;;;5016883;28;20848;-76
2023/12/21 03:43:03;;;;;;;12.70;3.70;;;7.60;99.90;;;;;;5019973;28;20587;-77
2023/12/21 03:45:30;;;;;;;16.30;3.83;;;7.60;99.90;;;;;;5015410;28;20232;-77
2023/12/21 03:47:57;;;;;;;12.63;2.97;;;7.60;99.90;;;;;;5008707;28;20692;-77
2023/12/21 03:50:25;;;;;;;14.83;3.63;;;7.60;99.90;;;;;;5017663;28;20554;-78
2023/12/21 03:52:51;;;;;;;13.17;3.37;;;7.60;99.90;;;;;;5007944;28;20227;-78
2023/12/21 03:55:18;;;;;;;14.87;3.33;;;7.60;99.90;;;;;;5008251;28;20223;-78
2023/12/21 03:57:45;;;;;;;13.70;3.30;;;7.60;99.90;;;;;;5017078;28;20230;-77
2023/12/21 04:00:13;;;;;;;16.27;3.30;;;7.60;99.90;;;;;;5019491;28;20231;-78
2023/12/21 04:02:39;;;;;;;14.47;2.93;;;7.60;99.90;;;;;;5015873;28;20231;-78
2023/12/21 04:05:07;;;;;;;12.90;3.30;;;7.60;99.90;;;;;;5017461;28;20230;-78
2023/12/21 04:07:35;;;;;;;11.40;2.70;;;7.60;99.90;;;;;;5014109;28;20223;-78
2023/12/21 04:10:02;;;;;;;11.70;3.07;;;7.60;99.90;;;;;;5015008;28;20236;-77
2023/12/21 04:12:29;;;;;;;11.23;3.13;;;7.60;99.90;;;;;;5015357;28;20228;-77
2023/12/21 04:14:55;;;;;;;9.07;3.00;;;7.60;99.90;;;;;;5014754;28;20830;-77
2023/12/21 04:17:22;;;;;;;10.97;2.30;;;7.60;99.90;;;;;;5012741;28;20317;-77
2023/12/21 04:19:49;;;;;;;10.03;2.70;;;7.70;99.90;;;;;;5023412;28;20234;-77
2023/12/21 04:22:15;;;;;;;8.33;2.70;;;7.70;99.90;;;;;;5017506;28;20232;-78
2023/12/21 04:24:44;;;;;;;6.47;2.27;;;7.70;99.90;;;;;;5019972;28;20649;-78
2023/12/21 04:27:10;;;;;;;5.67;2.20;;;7.70;99.90;;;;;;5025085;28;20665;-78
2023/12/21 04:29:38;;;;;;;8.00;2.50;;;7.70;99.90;;;;;;5018717;28;20227;-78
2023/12/21 04:32:06;;;;;;;7.10;2.40;;;7.70;99.90;;;;;;5024791;28;20848;-78
2023/12/21 04:34:33;;;;;;;7.17;2.60;;;7.70;99.90;;;;;;5020860;28;20231;-78
2023/12/21 04:37:00;;;;;;;7.23;2.00;;;7.70;99.90;;;;;;5023183;28;20778;-80
2023/12/21 04:39:26;;;;;;;4.97;2.10;;;7.70;99.90;;;;;;5022511;28;20226;-79
2023/12/21 04:41:55;;;;;;;4.57;2.03;;;7.70;99.90;;;;;;5026037;28;20847;-79
2023/12/21 04:44:22;;;;;;;3.73;2.23;;;7.70;99.90;;;;;;5020126;28;20268;-79
2023/12/21 04:46:49;;;;;;;7.63;2.13;;;7.70;99.90;;;;;;5023247;28;20224;-78
2023/12/21 04:49:16;;;;;;;5.33;1.90;;;7.70;99.90;;;;;;5023282;28;20219;-78
2023/12/21 04:51:45;;;;;;;6.17;2.37;;;7.70;99.90;;;;;;5024583;28;20591;-78
2023/12/21 04:54:13;;;;;;;3.30;1.80;;;7.70;99.90;;;;;;5024691;28;20223;-78
2023/12/21 04:56:40;;;;;;;4.93;1.70;;;7.70;99.90;;;;;;5022568;28;20703;-79
2023/12/21 04:59:10;;;;;;;5.80;1.87;;;7.70;99.90;;;;;;5022625;28;20273;-77
2023/12/21 05:01:36;;;;;;;5.00;1.77;;;7.70;99.90;;;;;;5022804;28;20232;-77
2023/12/21 05:04:04;;;;;;;4.97;1.50;;;7.70;99.90;;;;;;5020595;28;20650;-78
2023/12/21 05:06:31;;;;;;;4.07;1.70;;;7.70;99.90;;;;;;5020270;28;20304;-77
2023/12/21 05:09:00;;;;;;;3.93;1.80;;;7.70;99.90;;;;;;5022498;28;20227;-78
2023/12/21 05:11:27;;;;;;;3.47;1.47;;;7.70;99.90;;;;;;5015745;28;20328;-78
2023/12/21 05:13:54;;;;;;;2.97;1.50;;;7.70;99.90;;;;;;5016376;28;20331;-77
2023/12/21 05:16:23;;;;;;;5.40;1.50;;;7.70;99.90;;;;;;5020306;28;20230;-78
2023/12/21 05:18:50;;;;;;;2.23;1.37;;;7.70;99.90;;;;;;5017194;28;20218;-79
2023/12/21 05:21:17;;;;;;;4.63;1.80;;;7.70;99.90;;;;;;5021583;28;20710;-78
2023/12/21 05:23:43;;;;;;;1.77;1.40;;;7.70;99.90;;;;;;5022003;28;20247;-76
2023/12/21 05:26:11;;;;;;;2.90;1.20;;;7.70;99.90;;;;;;5018768;28;20232;-75
2023/12/21 05:28:39;;;;;;;2.27;1.40;;;7.70;99.90;;;;;;5019623;28;20230;-76
2023/12/21 05:31:07;;;;;;;2.70;1.50;;;7.70;99.90;;;;;;5019565;28;20323;-76
2023/12/21 05:33:35;;;;;;;9.57;1.70;;;7.80;99.90;;;;;;5014152;28;20221;-77
2023/12/21 05:36:02;;;;;;;9.10;1.47;;;7.70;99.90;;;;;;5017790;28;20483;-76
2023/12/21 05:38:29;;;;;;;2.43;1.10;;;7.70;99.90;;;;;;5017617;28;20264;-75
2023/12/21 05:40:56;;;;;;;26.27;2.53;;;7.80;99.90;;;;;;5016545;28;20360;-76
2023/12/21 05:43:22;;;;;;;16.23;1.93;;;7.80;99.90;;;;;;5017258;28;20221;-75
2023/12/21 05:45:49;;;;;;;25.03;2.37;;;7.80;99.90;;;;;;5020084;28;20237;-75
2023/12/21 05:48:16;;;;;;;19.87;2.10;;;7.70;99.90;;;;;;5020511;28;20223;-75
2023/12/21 05:50:44;;;;;;;17.83;1.77;;;7.80;99.90;;;;;;5015332;28;20226;-75
2023/12/21 05:53:11;;;;;;;15.63;1.63;;;7.80;99.90;;;;;;5016497;28;20240;-75
2023/12/21 05:55:38;;;;;;;5.60;1.10;;;7.80;99.90;;;;;;5018522;28;20223;-75
2023/12/21 05:58:05;;;;;;;3.30;1.10;;;7.80;99.90;;;;;;5023556;28;20229;-75
2023/12/21 06:00:32;;;;;;;6.60;1.20;;;7.80;99.90;;;;;;5020036;28;20280;-75
2023/12/21 06:02:59;;;;;;;6.33;1.50;;;7.90;99.90;;;;;;5013816;28;20232;-75
2023/12/21 06:05:26;;;;;;;3.93;1.13;;;7.80;99.90;;;;;;5018635;28;20294;-75
2023/12/21 06:07:54;;;;;;;10.33;1.50;;;7.80;99.90;;;;;;5021465;28;20227;-75
2023/12/21 06:10:21;;;;;;;1.90;0.90;;;7.80;99.90;;;;;;5012752;28;20228;-75
2023/12/21 06:12:48;;;;;;;1.97;1.03;;;7.90;99.90;;;;;;5012592;28;20232;-75
2023/12/21 06:15:14;;;;;;;2.10;0.97;;;7.90;99.90;;;;;;5014334;28;20220;-76
2023/12/21 06:17:41;;;;;;;2.23;1.10;;;7.90;99.90;;;;;;5019076;28;20223;-77
2023/12/21 06:20:09;;;;;;;1.43;1.00;;;7.80;99.90;;;;;;5020325;28;20326;-76
2023/12/21 06:22:36;;;;;;;1.67;1.40;;;7.90;99.90;;;;;;5020296;28;20788;-78
2023/12/21 06:25:05;;;;;;;1.70;1.00;;;7.80;99.90;;;;;;5017886;28;20239;-78
2023/12/21 06:27:31;;;;;;;2.17;1.10;;;7.90;99.90;;;;;;5022515;28;20228;-78
2023/12/21 06:29:58;;;;;;;1.67;1.30;;;7.80;99.90;;;;;;5021999;28;20236;-78
2023/12/21 06:32:25;;;;;;;1.30;1.20;;;7.80;99.90;;;;;;5020196;28;20228;-78
2023/12/21 06:34:52;;;;;;;2.57;1.03;;;7.80;99.90;;;;;;5018477;28;20323;-78
2023/12/21 06:37:19;;;;;;;1.23;1.03;;;7.90;99.90;;;;;;5018924;28;20232;-78
2023/12/21 06:39:45;;;;;;;1.40;1.30;;;7.90;99.90;;;;;;5015564;28;20231;-78
2023/12/21 06:42:13;;;;;;;1.40;1.30;;;7.80;99.90;;;;;;5022638;28;20250;-78
2023/12/21 06:44:40;;;;;;;1.40;1.30;;;7.90;99.90;;;;;;5012809;28;21015;-78
2023/12/21 06:47:07;;;;;;;1.47;1.23;;;7.90;99.90;;;;;;5015509;28;20236;-78
2023/12/21 06:49:33;;;;;;;4.10;1.47;;;7.90;99.90;;;;;;5011984;28;20233;-78
2023/12/21 06:52:00;;;;;;;1.87;1.13;;;7.90;99.90;;;;;;5016312;28;20843;-78
2023/12/21 06:54:27;;;;;;;2.20;1.30;;;7.90;99.90;;;;;;5013858;28;20227;-78
2023/12/21 06:56:53;;;;;;;1.27;1.00;;;7.90;99.90;;;;;;5019737;28;20221;-78
2023/12/21 06:59:21;;;;;;;1.20;1.10;;;7.90;99.90;;;;;;5015360;28;20226;-78
2023/12/21 07:01:48;;;;;;;1.00;0.83;;;7.90;99.90;;;;;;5005060;28;23958;-78
2023/12/21 07:04:16;;;;;;;3.00;0.90;;;7.90;99.90;;;;;;5014792;28;20221;-77
2023/12/21 07:06:44;;;;;;;1.20;0.83;;;7.90;99.90;;;;;;5020715;28;20861;-78
2023/12/21 07:09:10;;;;;;;2.10;0.87;;;7.90;99.90;;;;;;5023679;28;20235;-78
2023/12/21 07:11:37;;;;;;;1.00;0.70;;;7.90;99.90;;;;;;5021628;28;20219;-77
2023/12/21 07:14:03;;;;;;;3.23;0.90;;;7.90;99.90;;;;;;5023780;28;20231;-77
2023/12/21 07:16:31;;;;;;;2.57;0.90;;;7.90;99.90;;;;;;5023335;28;20246;-78
2023/12/21 07:18:58;;;;;;;1.70;0.90;;;7.90;99.90;;;;;;5022282;28;20234;-78
2023/12/21 07:21:25;;;;;;;1.43;1.20;;;7.80;99.90;;;;;;5023358;28;20238;-77
2023/12/21 07:23:51;;;;;;;1.90;1.03;;;7.80;99.90;;;;;;5023749;28;20841;-77
2023/12/21 07:26:18;;;;;;;1.27;0.80;;;7.80;99.90;;;;;;5022760;28;20231;-77
2023/12/21 07:28:45;;;;;;;1.37;0.90;;;7.80;99.90;;;;;;5023884;28;20234;-77
2023/12/21 07:31:13;;;;;;;0.93;0.80;;;7.80;99.90;;;;;;5022654;28;20797;-77
2023/12/21 07:33:42;;;;;;;1.43;0.80;;;7.80;99.90;;;;;;5023031;28;20218;-78
2023/12/21 07:36:09;;;;;;;0.80;0.80;;;7.80;99.90;;;;;;5012576;28;20724;-77
2023/12/21 07:38:37;;;;;;;2.23;0.90;;;7.90;99.90;;;;;;5022100;28;20235;-78
2023/12/21 07:41:04;;;;;;;1.13;0.80;;;7.80;99.90;;;;;;5022028;28;20220;-77
2023/12/21 07:43:31;;;;;;;1.00;0.80;;;7.80;99.90;;;;;;5023668;28;20306;-77
2023/12/21 07:45:58;;;;;;;1.13;0.90;;;7.80;99.90;;;;;;5017631;28;20222;-77
2023/12/21 07:48:24;;;;;;;1.17;0.90;;;7.80;99.90;;;;;;5021620;28;20238;-77
2023/12/21 07:50:52;;;;;;;1.87;0.77;;;7.80;99.90;;;;;;5021045;28;20248;-77
2023/12/21 07:53:19;;;;;;;1.67;0.80;;;7.80;99.90;;;;;;5020396;28;20232;-77
2023/12/21 07:55:45;;;;;;;1.43;0.73;;;7.80;99.90;;;;;;5026067;28;20748;-77
2023/12/21 07:58:13;;;;;;;2.00;0.80;;;7.80;99.90;;;;;;5025945;28;20870;-78
2023/12/21 08:00:39;;;;;;;3.37;0.90;;;7.80;99.90;;;;;;5026784;28;20238;-77
2023/12/21 08:03:06;;;;;;;1.10;0.90;;;7.80;99.90;;;;;;5024109;28;20236;-78
2023/12/21 08:05:33;;;;;;;1.03;0.70;;;7.80;99.90;;;;;;5027235;28;20958;-77
2023/12/21 08:08:01;;;;;;;2.13;0.80;;;7.80;99.90;;;;;;5025554;28;20235;-77
2023/12/21 08:10:27;;;;;;;1.70;0.70;;;7.80;99.90;;;;;;5017252;28;20232;-77
2023/12/21 08:12:54;;;;;;;1.17;0.70;;;7.80;99.90;;;;;;5025630;28;20224;-78
2023/12/21 08:15:21;;;;;;;1.67;1.00;;;7.80;99.90;;;;;;5022842;28;20261;-77
2023/12/21 08:17:51;;;;;;;1.30;0.83;;;7.80;99.90;;;;;;5025967;28;20226;-77
2023/12/21 08:20:17;;;;;;;1.00;0.90;;;7.80;99.90;;;;;;5018345;28;20226;-77
2023/12/21 08:22:44;;;;;;;1.40;0.73;;;7.80;99.90;;;;;;5026240;28;20258;-77
2023/12/21 08:25:12;;;;;;;2.40;0.80;;;7.80;99.90;;;;;;5025890;28;20220;-78
2023/12/21 08:27:41;;;;;;;0.70;0.70;;;7.80;99.90;;;;;;5027958;28;20254;-78
2023/12/21 08:30:08;;;;;;;1.13;0.53;;;7.80;99.90;;;;;;5023657;28;20227;-78
2023/12/21 08:32:35;;;;;;;1.43;0.60;;;7.80;99.90;;;;;;5024355;28;20235;-78
2023/12/21 08:35:02;;;;;;;1.47;0.63;;;7.80;99.90;;;;;;5026143;28;20230;-78
2023/12/21 08:37:28;;;;;;;1.20;0.70;;;7.80;99.90;;;;;;5026786;28;20231;-77
2023/12/21 08:39:55;;;;;;;2.40;0.60;;;7.80;99.90;;;;;;5022593;28;20276;-77
2023/12/21 08:42:23;;;;;;;1.23;0.50;;;7.80;99.90;;;;;;5023920;28;20225;-77
2023/12/21 08:44:50;;;;;;;1.43;0.47;;;7.80;99.90;;;;;;5027175;28;20610;-77
2023/12/21 08:47:17;;;;;;;1.13;0.60;;;7.80;99.90;;;;;;5021413;28;20761;-77
2023/12/21 08:49:43;;;;;;;0.43;0.40;;;7.90;99.90;;;;;;5021200;28;20233;-77
2023/12/21 08:52:10;;;;;;;0.53;0.30;;;7.90;99.90;;;;;;5017454;28;20216;-77
2023/12/21 08:54:37;;;;;;;0.37;0.33;;;7.80;99.90;;;;;;5025195;28;20226;-77
2023/12/21 08:57:04;;;;;;;0.47;0.40;;;7.80;99.90;;;;;;5022467;28;20234;-78
2023/12/21 08:59:32;;;;;;;1.37;0.30;;;7.80;99.90;;;;;;5013182;28;20249;-78
2023/12/21 09:01:59;;;;;;;0.40;0.30;;;7.90;99.90;;;;;;5022452;28;20244;-78
2023/12/21 09:04:26;;;;;;;0.57;0.30;;;7.80;99.90;;;;;;5026151;28;20227;-77
2023/12/21 09:06:53;;;;;;;0.60;0.40;;;7.90;99.90;;;;;;5023068;28;20227;-78
2023/12/21 09:09:19;;;;;;;0.60;0.30;;;7.90;99.90;;;;;;5024352;28;20590;-77
2023/12/21 09:11:46;;;;;;;1.90;0.40;;;7.80;99.90;;;;;;5026434;28;20231;-81
2023/12/21 09:14:13;;;;;;;0.37;0.30;;;7.90;99.90;;;;;;5022918;28;20220;-81
2023/12/21 09:16:41;;;;;;;0.57;0.37;;;7.90;99.90;;;;;;5018684;28;20259;-80
2023/12/21 09:19:08;;;;;;;0.80;0.40;;;7.90;99.90;;;;;;5023904;28;20230;-81
2023/12/21 09:21:36;;;;;;;0.60;0.50;;;7.90;99.90;;;;;;5024686;28;20235;-81
2023/12/21 09:24:02;;;;;;;0.43;0.30;;;7.90;99.90;;;;;;5020388;28;20768;-81
2023/12/21 09:26:29;;;;;;;1.33;0.40;;;7.90;99.90;;;;;;5020641;28;20224;-82
2023/12/21 09:28:56;;;;;;;0.40;0.40;;;7.90;99.90;;;;;;5024935;28;20243;-80
2023/12/21 09:31:22;;;;;;;0.70;0.40;;;7.90;99.90;;;;;;5024390;28;20236;-82
2023/12/21 09:33:50;;;;;;;0.67;0.53;;;7.90;99.90;;;;;;5024878;28;20228;-82
2023/12/21 09:36:17;;;;;;;2.57;0.53;;;7.90;99.90;;;;;;5019301;28;20217;-80
2023/12/21 09:38:44;;;;;;;0.63;0.40;;;7.90;99.90;;;;;;5024214;28;20228;-81
2023/12/21 09:41:11;;;;;;;0.73;0.50;;;7.90;99.90;;;;;;5017422;28;20259;-81
2023/12/21 09:43:41;;;;;;;1.33;0.60;;;8.00;99.90;;;;;;5024496;28;20227;-80
2023/12/21 09:46:09;;;;;;;0.80;0.53;;;8.00;99.90;;;;;;5024122;28;20232;-80
2023/12/21 09:48:38;;;;;;;0.70;0.53;;;8.00;99.90;;;;;;5026412;28;20298;-80
2023/12/21 09:51:08;;;;;;;0.60;0.40;;;8.00;99.90;;;;;;5020745;28;20260;-82
2023/12/21 09:53:37;;;;;;;1.03;0.40;;;8.10;99.90;;;;;;5024887;28;20230;-81
2023/12/21 09:56:06;;;;;;;0.47;0.40;;;8.10;99.90;;;;;;5025538;28;20232;-84
2023/12/21 09:58:33;;;;;;;0.90;0.40;;;8.10;99.90;;;;;;5020680;28;20237;-81
2023/12/21 10:01:00;;;;;;;0.67;0.50;;;8.10;99.90;;;;;;5026325;28;20239;-82
2023/12/21 10:03:27;;;;;;;0.93;0.60;;;8.10;99.90;;;;;;5024580;28;20236;-81
2023/12/21 10:05:53;;;;;;;0.50;0.50;;;8.10;99.90;;;;;;5025857;28;20258;-81
2023/12/21 10:08:22;;;;;;;1.07;0.60;;;8.10;99.90;;;;;;5026395;28;20227;-82
2023/12/21 10:10:48;;;;;;;1.23;0.50;;;8.20;99.90;;;;;;5026628;28;20239;-81
2023/12/21 10:13:16;;;;;;;2.30;0.60;;;8.20;99.90;;;;;;5032603;28;20580;-81
2023/12/21 10:15:42;;;;;;;0.87;0.40;;;8.20;99.90;;;;;;5023945;28;20218;-81
2023/12/21 10:18:10;;;;;;;0.70;0.47;;;8.20;99.90;;;;;;5011513;28;20231;-82
2023/12/21 10:20:37;;;;;;;1.73;0.60;;;8.20;99.90;;;;;;5022312;28;20235;-82
2023/12/21 10:23:04;;;;;;;1.03;0.50;;;8.20;99.90;;;;;;5018985;28;20232;-82
2023/12/21 10:25:32;;;;;;;1.07;0.53;;;8.20;99.90;;;;;;5019978;28;20232;-82
2023/12/21 10:27:59;;;;;;;1.27;0.67;;;8.20;99.90;;;;;;5024893;28;20746;-81
2023/12/21 10:30:26;;;;;;;1.43;0.60;;;8.20;99.90;;;;;;5020899;28;20779;-81
2023/12/21 10:32:53;;;;;;;0.90;0.50;;;8.20;99.90;;;;;;5018769;28;20213;-80
2023/12/21 10:35:20;;;;;;;0.60;0.30;;;8.20;99.90;;;;;;5020830;28;20270;-82
2023/12/21 10:37:47;;;;;;;0.57;0.30;;;8.20;99.90;;;;;;5020750;28;20223;-82
2023/12/21 10:40:15;;;;;;;2.63;0.60;;;8.30;99.90;;;;;;5022581;28;20233;-81
2023/12/21 10:42:46;;;;;;;1.33;0.53;;;8.30;99.90;;;;;;5021655;28;20235;-82
2023/12/21 10:45:15;;;;;;;0.70;0.30;;;8.30;99.90;;;;;;5024253;28;20237;-82
2023/12/21 10:47:48;;;;;;;1.30;0.60;;;8.30;99.90;;;;;;5017322;28;20230;-82
2023/12/21 10:50:16;;;;;;;0.63;0.40;;;8.30;99.90;;;;;;5011727;28;20218;-81
2023/12/21 10:52:46;;;;;;;1.20;0.40;;;8.30;99.90;;;;;;5025044;28;20219;-82
2023/12/21 10:55:15;;;;;;;2.70;0.60;;;8.30;99.90;;;;;;5016340;28;20233;-79
2023/12/21 10:57:43;;;;;;;0.70;0.40;;;8.30;99.90;;;;;;5020709;28;20777;-82
2023/12/21 11:00:15;;;;;;;3.00;0.60;;;8.30;99.90;;;;;;5021271;28;20234;-82
2023/12/21 11:02:45;;;;;;;2.53;0.60;;;8.30;99.90;;;;;;5018287;28;20295;-81
2023/12/21 11:05:19;;;;;;;0.80;0.43;;;8.30;99.90;;;;;;5021871;28;20239;-81
2023/12/21 11:07:48;;;;;;;1.27;0.50;;;8.40;99.90;;;;;;5016810;28;20227;-82
2023/12/21 11:10:16;;;;;;;1.37;0.57;;;8.40;99.90;;;;;;5017135;28;20240;-86
2023/12/21 11:12:42;;;;;;;0.97;0.60;;;8.40;99.90;;;;;;5023971;28;20236;-84
2023/12/21 11:15:15;;;;;;;2.17;0.60;;;8.40;99.90;;;;;;5022490;28;20238;-82
2023/12/21 11:17:45;;;;;;;0.47;0.47;;;8.40;99.90;;;;;;5008626;28;20224;-80
2023/12/21 11:20:16;;;;;;;2.83;0.50;;;8.40;99.90;;;;;;5024353;28;20278;-82
2023/12/21 11:22:43;;;;;;;1.33;0.50;;;8.40;99.90;;;;;;5020702;28;20224;-82
2023/12/21 11:25:12;;;;;;;3.73;0.80;;;8.40;99.90;;;;;;5019303;28;20230;-82
2023/12/21 11:27:40;;;;;;;2.77;0.83;;;8.40;99.90;;;;;;5023727;28;20588;-82
2023/12/21 11:30:12;;;;;;;2.77;0.70;;;8.50;99.90;;;;;;5028249;28;20238;-81
2023/12/21 11:32:40;;;;;;;3.60;0.70;;;8.50;99.90;;;;;;5013305;28;20238;-82
2023/12/21 11:35:21;;;;;;;2.87;0.67;;;8.50;99.90;;;;;;5024672;28;20584;-82
2023/12/21 11:37:54;;;;;;;3.50;0.93;;;8.50;99.90;;;;;;5024012;28;20231;-82
2023/12/21 11:40:21;;;;;;;3.27;1.30;;;8.60;99.90;;;;;;5019939;28;20766;-82
2023/12/21 11:42:49;;;;;;;3.67;1.77;;;8.60;99.90;;;;;;5026925;28;20231;-81
2023/12/21 11:45:24;;;;;;;5.37;1.10;;;8.60;99.90;;;;;;5018894;28;20232;-81
2023/12/21 11:47:51;;;;;;;4.33;1.30;;;8.60;99.90;;;;;;5023958;28;20231;-81
2023/12/21 11:50:20;;;;;;;5.67;1.73;;;8.50;99.90;;;;;;5025964;28;20240;-80
2023/12/21 11:52:48;;;;;;;4.03;1.60;;;8.60;99.90;;;;;;5026784;28;20237;-81
2023/12/21 11:55:24;;;;;;;7.37;1.77;;;8.60;99.90;;;;;;5029205;28;20227;-81
2023/12/21 11:58:06;;;;;;;7.47;1.70;;;8.60;99.90;;;;;;5021763;28;20221;-79
2023/12/21 12:00:34;;;;;;;6.20;1.80;;;8.60;99.90;;;;;;5013850;28;20223;-81
2023/12/21 12:03:02;;;;;;;3.60;1.33;;;8.50;99.90;;;;;;5019290;28;20239;-80
2023/12/21 12:05:30;;;;;;;3.57;1.33;;;8.50;99.90;;;;;;5024446;28;20238;-80
2023/12/21 12:07:56;;;;;;;4.23;1.60;;;8.40;99.90;;;;;;5011788;28;20270;-80
2023/12/21 12:10:23;;;;;;;6.73;2.07;;;8.30;99.90;;;;;;5022008;28;20418;-81
2023/12/21 12:12:52;;;;;;;3.57;1.33;;;8.20;99.90;;;;;;5021506;28;20216;-82
2023/12/21 12:15:19;;;;;;;6.60;1.70;;;8.10;99.90;;;;;;5024590;28;20230;-81
2023/12/21 12:17:47;;;;;;;6.63;1.37;;;8.00;99.90;;;;;;5022646;28;20221;-82
2023/12/21 12:20:14;;;;;;;7.73;2.17;;;7.90;99.90;;;;;;5021075;28;20241;-81
2023/12/21 12:22:41;;;;;;;6.63;1.47;;;7.70;99.90;;;;;;5019431;28;20231;-82
2023/12/21 12:25:08;;;;;;;6.63;1.40;;;7.70;99.90;;;;;;5020587;28;20228;-79
2023/12/21 12:27:35;;;;;;;4.77;1.70;;;7.60;99.90;;;;;;5018905;28;20310;-82
2023/12/21 12:30:03;;;;;;;7.67;2.80;;;7.50;99.90;;;;;;5019844;28;20231;-81
2023/12/21 12:32:31;;;;;;;9.60;2.30;;;7.30;99.90;;;;;;5022626;28;20223;-81
2023/12/21 12:34:59;;;;;;;5.53;1.77;;;7.20;99.90;;;;;;5023512;28;20234;-82
2023/12/21 12:37:26;;;;;;;7.70;1.87;;;7.10;99.90;;;;;;5026383;28;20223;-81
2023/12/21 12:39:52;;;;;;;8.97;2.03;;;7.00;99.90;;;;;;5027881;28;20227;-81
2023/12/21 12:42:19;;;;;;;7.80;1.83;;;7.00;99.90;;;;;;5022677;28;20738;-81
2023/12/21 12:44:46;;;;;;;7.00;2.37;;;6.90;99.90;;;;;;5015112;28;20229;-81
2023/12/21 12:47:12;;;;;;;6.63;1.50;;;6.80;99.90;;;;;;5011124;28;20931;-82
2023/12/21 12:49:41;;;;;;;8.27;1.37;;;6.80;99.90;;;;;;5026374;28;20234;-80
2023/12/21 12:52:15;;;;;;;8.97;2.13;;;6.70;99.90;;;;;;5021964;28;20237;-80
2023/12/21 12:54:42;;;;;;;7.80;2.00;;;6.70;99.90;;;;;;5024461;28;20219;-80
2023/12/21 12:57:10;;;;;;;6.53;1.93;;;6.70;99.90;;;;;;5025858;28;20223;-81